createdAt,value
2023-08-20T00:00:57.632Z,19.7
2023-08-20T00:02:28.121Z,19.7
2023-08-20T00:03:58.793Z,19.7
2023-08-20T00:05:29.266Z,19.7
2023-08-20T00:06:59.684Z,19.7
2023-08-20T00:08:30.131Z,19.7
2023-08-20T00:10:00.625Z,19.8
2023-08-20T00:11:31.047Z,19.7
2023-08-20T00:13:01.615Z,19.7
2023-08-20T00:14:32.093Z,19.7
2023-08-20T00:16:02.567Z,19.7
2023-08-20T00:17:33.617Z,19.7
2023-08-20T00:19:05.208Z,19.7
2023-08-20T00:20:35.619Z,19.7
2023-08-20T00:22:06.158Z,19.7
2023-08-20T00:23:36.578Z,19.7
2023-08-20T00:25:07.397Z,19.7
2023-08-20T00:26:37.834Z,19.7
2023-08-20T00:28:08.235Z,19.7
2023-08-20T00:29:38.650Z,19.7
2023-08-20T00:31:09.166Z,19.7
2023-08-20T00:32:39.878Z,19.7
2023-08-20T00:34:10.829Z,19.7
2023-08-20T00:35:41.263Z,19.7
2023-08-20T00:37:11.695Z,19.7
2023-08-20T00:38:42.201Z,19.7
2023-08-20T00:40:12.925Z,19.7
2023-08-20T00:41:43.358Z,19.7
2023-08-20T00:42:00.379Z,19.7
2023-08-20T00:43:30.928Z,19.7
2023-08-20T00:45:01.423Z,19.7
2023-08-20T00:46:31.974Z,19.7
2023-08-20T00:48:02.541Z,19.7
2023-08-20T00:49:33.103Z,19.7
2023-08-20T00:51:03.656Z,19.7
2023-08-20T00:52:34.132Z,19.7
2023-08-20T00:54:04.659Z,19.7
2023-08-20T00:55:35.224Z,19.7
2023-08-20T00:57:05.733Z,19.7
2023-08-20T00:58:36.246Z,19.7
2023-08-20T01:00:06.780Z,19.7
2023-08-20T01:01:37.308Z,19.7
2023-08-20T01:03:07.936Z,19.7
2023-08-20T01:04:38.628Z,19.7
2023-08-20T01:06:09.247Z,19.7
2023-08-20T01:07:39.787Z,19.7
2023-08-20T01:09:10.337Z,19.7
2023-08-20T01:10:40.863Z,19.7
2023-08-20T01:12:11.359Z,19.7
2023-08-20T01:13:41.883Z,19.7
2023-08-20T01:15:12.447Z,19.7
2023-08-20T01:16:42.963Z,19.7
2023-08-20T01:18:14.578Z,19.7
2023-08-20T01:19:45.129Z,19.7
2023-08-20T01:21:15.564Z,19.7
2023-08-20T01:22:46.071Z,19.7
2023-08-20T01:24:16.576Z,19.7
2023-08-20T01:25:47.109Z,19.7
2023-08-20T01:27:17.616Z,19.7
2023-08-20T01:28:48.164Z,19.7
2023-08-20T01:30:18.667Z,19.7
2023-08-20T01:31:51.777Z,19.7
2023-08-20T01:33:22.273Z,19.7
2023-08-20T01:34:52.795Z,19.7
2023-08-20T01:36:23.309Z,19.7
2023-08-20T01:37:53.804Z,19.7
2023-08-20T01:39:24.331Z,19.7
2023-08-20T01:40:54.853Z,19.7
2023-08-20T01:42:25.423Z,19.7
2023-08-20T01:43:55.911Z,19.7
2023-08-20T01:45:26.433Z,19.7
2023-08-20T01:46:57.012Z,19.7
2023-08-20T01:48:27.478Z,19.7
2023-08-20T01:49:58.002Z,19.7
2023-08-20T01:51:28.523Z,19.7
2023-08-20T01:52:59.072Z,19.6
2023-08-20T01:54:29.573Z,19.7
2023-08-20T01:56:00.081Z,19.7
2023-08-20T01:57:30.654Z,19.7
2023-08-20T01:59:01.850Z,19.7
2023-08-20T02:00:32.384Z,19.6
2023-08-20T02:03:13.053Z,19.6
2023-08-20T02:04:43.706Z,19.6
2023-08-20T02:06:14.296Z,19.6
2023-08-20T02:07:44.799Z,19.6
2023-08-20T02:09:15.307Z,19.6
2023-08-20T02:10:45.757Z,19.6
2023-08-20T02:12:16.254Z,19.6
2023-08-20T02:13:46.777Z,19.6
2023-08-20T02:15:17.204Z,19.6
2023-08-20T02:16:47.737Z,19.6
2023-08-20T02:18:18.485Z,19.6
2023-08-20T02:19:48.971Z,19.6
2023-08-20T02:21:19.500Z,19.7
2023-08-20T02:22:50.009Z,19.6
2023-08-20T02:24:20.427Z,19.6
2023-08-20T02:25:50.853Z,19.6
2023-08-20T02:27:21.371Z,19.6
2023-08-20T02:28:51.792Z,19.6
2023-08-20T02:30:22.219Z,19.7
2023-08-20T02:31:52.737Z,19.6
2023-08-20T02:33:23.186Z,19.6
2023-08-20T02:34:53.600Z,19.6
2023-08-20T02:36:24.208Z,19.6
2023-08-20T02:37:54.624Z,19.6
2023-08-20T02:39:25.061Z,19.6
2023-08-20T02:40:55.570Z,19.6
2023-08-20T02:42:26.090Z,19.6
2023-08-20T02:43:56.553Z,19.6
2023-08-20T02:45:27.049Z,19.6
2023-08-20T02:46:57.668Z,19.6
2023-08-20T02:48:28.180Z,19.6
2023-08-20T02:49:58.719Z,19.6
2023-08-20T02:51:29.229Z,19.6
2023-08-20T02:52:59.664Z,19.6
2023-08-20T02:54:30.207Z,19.6
2023-08-20T02:56:00.703Z,19.6
2023-08-20T02:57:31.120Z,19.6
2023-08-20T02:59:02.356Z,19.6
2023-08-20T03:00:32.776Z,19.6
2023-08-20T03:02:03.185Z,19.6
2023-08-20T03:03:33.646Z,19.6
2023-08-20T03:05:04.233Z,19.6
2023-08-20T03:06:34.658Z,19.6
2023-08-20T03:08:05.204Z,19.6
2023-08-20T03:09:35.708Z,19.6
2023-08-20T03:11:06.230Z,19.6
2023-08-20T03:12:36.768Z,19.6
2023-08-20T03:14:07.274Z,19.6
2023-08-20T03:15:37.706Z,19.6
2023-08-20T03:17:08.228Z,19.6
2023-08-20T03:18:38.774Z,19.6
2023-08-20T03:20:09.260Z,19.6
2023-08-20T03:21:39.804Z,19.6
2023-08-20T03:23:10.309Z,19.6
2023-08-20T03:24:40.831Z,19.6
2023-08-20T03:26:11.386Z,19.6
2023-08-20T03:27:41.875Z,19.6
2023-08-20T03:29:12.300Z,19.6
2023-08-20T03:30:42.833Z,19.6
2023-08-20T03:32:13.380Z,19.6
2023-08-20T03:33:43.893Z,19.6
2023-08-20T03:35:14.294Z,19.6
2023-08-20T03:36:44.717Z,19.6
2023-08-20T03:38:15.226Z,19.6
2023-08-20T03:39:45.643Z,19.6
2023-08-20T03:41:16.070Z,19.6
2023-08-20T03:42:46.595Z,19.6
2023-08-20T03:44:17.014Z,19.6
2023-08-20T03:45:47.555Z,19.6
2023-08-20T03:47:18.161Z,19.6
2023-08-20T03:48:48.729Z,19.6
2023-08-20T03:50:20.045Z,19.6
2023-08-20T03:51:50.552Z,19.6
2023-08-20T03:52:07.602Z,19.6
2023-08-20T03:53:38.169Z,19.6
2023-08-20T03:55:08.608Z,19.6
2023-08-20T03:56:39.119Z,19.6
2023-08-20T03:58:09.550Z,19.6
2023-08-20T03:59:40.097Z,19.6
2023-08-20T04:01:10.631Z,19.6
2023-08-20T04:02:41.150Z,19.6
2023-08-20T04:04:11.786Z,19.6
2023-08-20T04:05:42.453Z,19.5
2023-08-20T04:07:12.877Z,19.6
2023-08-20T04:08:44.183Z,19.6
2023-08-20T04:10:14.761Z,19.5
2023-08-20T04:11:45.255Z,19.6
2023-08-20T04:13:15.701Z,19.6
2023-08-20T04:14:46.212Z,19.6
2023-08-20T04:16:16.628Z,19.6
2023-08-20T04:17:47.283Z,19.6
2023-08-20T04:19:18.015Z,19.6
2023-08-20T04:20:48.537Z,19.6
2023-08-20T04:22:19.024Z,19.6
2023-08-20T04:23:49.459Z,19.6
2023-08-20T04:25:19.968Z,19.6
2023-08-20T04:26:50.394Z,19.5
2023-08-20T04:28:20.819Z,19.6
2023-08-20T04:29:51.334Z,19.6
2023-08-20T04:31:21.894Z,19.6
2023-08-20T04:32:52.431Z,19.5
2023-08-20T04:34:23.031Z,19.5
2023-08-20T04:35:53.429Z,19.5
2023-08-20T04:37:23.975Z,19.6
2023-08-20T04:38:54.468Z,19.6
2023-08-20T04:40:24.998Z,19.5
2023-08-20T04:41:55.528Z,19.5
2023-08-20T04:43:26.047Z,19.6
2023-08-20T04:44:56.458Z,19.5
2023-08-20T04:46:26.927Z,19.5
2023-08-20T04:47:57.439Z,19.5
2023-08-20T04:49:27.945Z,19.5
2023-08-20T04:50:58.354Z,19.5
2023-08-20T04:52:28.866Z,19.5
2023-08-20T04:53:59.287Z,19.5
2023-08-20T04:55:29.719Z,19.5
2023-08-20T04:57:00.241Z,19.6
2023-08-20T04:58:30.765Z,19.5
2023-08-20T05:00:01.276Z,19.5
2023-08-20T05:01:31.708Z,19.5
2023-08-20T05:03:02.268Z,19.5
2023-08-20T05:04:33.013Z,19.5
2023-08-20T05:06:03.607Z,19.5
2023-08-20T05:07:34.103Z,19.5
2023-08-20T05:09:04.521Z,19.5
2023-08-20T05:10:35.056Z,19.5
2023-08-20T05:12:05.563Z,19.5
2023-08-20T05:13:36.088Z,19.5
2023-08-20T05:15:06.620Z,19.5
2023-08-20T05:16:37.201Z,19.5
2023-08-20T05:18:07.912Z,19.5
2023-08-20T05:19:38.411Z,19.5
2023-08-20T05:21:08.898Z,19.5
2023-08-20T05:22:39.327Z,19.5
2023-08-20T05:24:09.883Z,19.5
2023-08-20T05:25:40.366Z,19.5
2023-08-20T05:27:10.790Z,19.5
2023-08-20T05:28:41.216Z,19.5
2023-08-20T05:30:11.732Z,19.5
2023-08-20T05:31:42.143Z,19.5
2023-08-20T05:33:12.577Z,19.5
2023-08-20T05:34:43.126Z,19.5
2023-08-20T05:36:13.623Z,19.5
2023-08-20T05:37:44.145Z,19.5
2023-08-20T05:39:14.679Z,19.5
2023-08-20T05:40:45.191Z,19.5
2023-08-20T05:41:02.185Z,19.5
2023-08-20T05:42:32.797Z,19.5
2023-08-20T05:44:03.956Z,19.5
2023-08-20T05:45:34.471Z,19.5
2023-08-20T05:47:04.894Z,19.5
2023-08-20T05:48:35.321Z,19.5
2023-08-20T05:50:05.762Z,19.5
2023-08-20T05:51:36.257Z,19.5
2023-08-20T05:53:06.787Z,19.5
2023-08-20T05:54:37.302Z,19.5
2023-08-20T05:56:07.835Z,19.5
2023-08-20T05:57:38.476Z,19.5
2023-08-20T05:59:08.974Z,19.5
2023-08-20T06:00:39.537Z,19.5
2023-08-20T06:02:10.039Z,19.5
2023-08-20T06:03:40.529Z,19.5
2023-08-20T06:05:10.997Z,19.5
2023-08-20T06:06:41.566Z,19.5
2023-08-20T06:08:12.229Z,19.5
2023-08-20T06:09:42.632Z,19.5
2023-08-20T06:11:13.077Z,19.5
2023-08-20T06:12:43.586Z,19.5
2023-08-20T06:14:14.093Z,19.5
2023-08-20T06:15:44.517Z,19.5
2023-08-20T06:17:14.950Z,19.5
2023-08-20T06:18:45.461Z,19.5
2023-08-20T06:20:15.900Z,19.5
2023-08-20T06:21:46.322Z,19.5
2023-08-20T06:23:27.738Z,19.5
2023-08-20T06:25:12.963Z,19.5
2023-08-20T06:26:43.380Z,19.5
2023-08-20T06:28:13.889Z,19.5
2023-08-20T06:29:44.313Z,19.5
2023-08-20T06:31:14.825Z,19.5
2023-08-20T06:32:45.494Z,19.5
2023-08-20T06:34:15.977Z,19.5
2023-08-20T06:35:46.436Z,19.5
2023-08-20T06:37:16.932Z,19.5
2023-08-20T06:38:47.333Z,19.5
2023-08-20T06:40:17.822Z,19.5
2023-08-20T06:41:48.298Z,19.5
2023-08-20T06:43:18.808Z,19.5
2023-08-20T06:44:49.229Z,19.5
2023-08-20T06:46:19.679Z,19.5
2023-08-20T06:47:50.306Z,19.5
2023-08-20T06:49:20.794Z,19.5
2023-08-20T06:50:51.254Z,19.5
2023-08-20T06:52:21.942Z,19.5
2023-08-20T06:53:52.377Z,19.5
2023-08-20T06:55:22.801Z,19.5
2023-08-20T06:56:53.306Z,19.5
2023-08-20T06:58:23.828Z,19.5
2023-08-20T06:59:54.267Z,19.5
2023-08-20T07:01:24.777Z,19.5
2023-08-20T07:02:55.311Z,19.4
2023-08-20T07:04:25.932Z,19.5
2023-08-20T07:05:56.479Z,19.5
2023-08-20T07:07:26.971Z,19.4
2023-08-20T07:08:57.402Z,19.5
2023-08-20T07:10:28.028Z,19.5
2023-08-20T07:11:58.540Z,19.5
2023-08-20T07:13:29.176Z,19.5
2023-08-20T07:14:59.680Z,19.5
2023-08-20T07:16:30.169Z,19.5
2023-08-20T07:18:00.744Z,19.4
2023-08-20T07:19:31.377Z,19.5
2023-08-20T07:21:01.907Z,19.4
2023-08-20T07:22:32.597Z,19.5
2023-08-20T07:24:03.047Z,19.5
2023-08-20T07:25:33.541Z,19.5
2023-08-20T07:27:03.973Z,19.4
2023-08-20T07:28:34.512Z,19.5
2023-08-20T07:30:05.016Z,19.4
2023-08-20T07:30:24.701Z,19.4
2023-08-20T07:31:55.231Z,19.4
2023-08-20T07:33:25.759Z,19.4
2023-08-20T07:34:56.268Z,19.5
2023-08-20T07:36:26.804Z,19.4
2023-08-20T07:37:58.102Z,19.4
2023-08-20T07:39:28.648Z,19.4
2023-08-20T07:40:59.178Z,19.4
2023-08-20T07:42:29.710Z,19.5
2023-08-20T07:44:00.284Z,19.4
2023-08-20T07:45:30.884Z,19.5
2023-08-20T07:47:01.575Z,19.4
2023-08-20T07:48:32.081Z,19.4
2023-08-20T07:50:02.601Z,19.4
2023-08-20T07:51:33.178Z,19.4
2023-08-20T07:53:03.664Z,19.4
2023-08-20T07:54:34.184Z,19.4
2023-08-20T07:56:04.697Z,19.4
2023-08-20T07:57:35.366Z,19.4
2023-08-20T07:59:06.678Z,19.4
2023-08-20T08:00:37.121Z,19.4
2023-08-20T14:03:20.508Z,19.3
2023-08-20T14:04:50.992Z,19.3
2023-08-20T14:06:21.592Z,19.3
2023-08-20T14:07:52.099Z,19.3
2023-08-20T14:09:22.641Z,19.3
2023-08-20T14:10:53.148Z,19.3
2023-08-20T14:12:23.666Z,19.3
2023-08-20T14:13:54.086Z,19.3
2023-08-20T14:15:24.608Z,19.3
2023-08-20T14:16:55.244Z,19.3
2023-08-20T14:18:25.684Z,19.3
2023-08-20T14:19:56.193Z,19.3
2023-08-20T14:21:26.699Z,19.3
2023-08-20T14:22:57.238Z,19.3
2023-08-20T14:24:27.660Z,19.3
2023-08-20T14:25:58.183Z,19.3
2023-08-20T14:27:28.683Z,19.3
2023-08-20T14:28:59.117Z,19.3
2023-08-20T14:30:29.525Z,19.3
2023-08-20T14:31:59.955Z,19.3
2023-08-20T14:33:30.537Z,19.3
2023-08-20T14:35:00.998Z,19.3
2023-08-20T14:36:31.420Z,19.3
2023-08-20T14:38:01.853Z,19.2
2023-08-20T14:39:32.440Z,19.3
2023-08-20T14:41:04.267Z,19.3
2023-08-20T14:42:35.353Z,19.3
2023-08-20T14:44:07.119Z,19.3
2023-08-20T14:45:37.627Z,19.3
2023-08-20T14:47:08.160Z,19.3
2023-08-20T14:48:38.723Z,19.3
2023-08-20T14:50:09.203Z,19.3
2023-08-20T14:51:39.721Z,19.3
2023-08-20T14:53:10.149Z,19.3
2023-08-20T14:54:40.662Z,19.3
2023-08-20T14:56:11.187Z,19.3
2023-08-20T14:57:51.246Z,19.3
2023-08-20T14:59:23.486Z,19.3
2023-08-20T15:00:54.141Z,19.3
2023-08-20T15:02:24.720Z,19.3
2023-08-20T15:03:55.499Z,19.3
2023-08-20T15:05:25.991Z,19.3
2023-08-20T15:06:56.417Z,19.2
2023-08-20T15:08:26.838Z,19.3
2023-08-20T15:09:57.264Z,19.3
2023-08-20T15:11:27.684Z,19.3
2023-08-20T15:12:58.194Z,19.3
2023-08-20T15:14:28.627Z,19.3
2023-08-20T15:15:59.164Z,19.3
2023-08-20T15:17:29.698Z,19.2
2023-08-20T15:19:00.322Z,19.3
2023-08-20T15:20:31.032Z,19.3
2023-08-20T15:22:01.536Z,19.3
2023-08-20T15:23:31.959Z,19.3
2023-08-20T15:25:02.399Z,19.3
2023-08-20T15:26:34.970Z,19.3
2023-08-20T15:28:05.584Z,19.3
2023-08-20T15:29:36.013Z,19.3
2023-08-20T15:31:06.639Z,19.3
2023-08-20T15:32:37.193Z,19.3
2023-08-20T15:34:07.924Z,19.3
2023-08-20T15:35:38.408Z,19.3
2023-08-20T15:37:08.916Z,19.3
2023-08-20T15:38:39.333Z,19.3
2023-08-20T15:40:09.878Z,19.3
2023-08-20T15:41:40.286Z,19.3
2023-08-20T15:43:10.717Z,19.3
2023-08-20T15:44:41.138Z,19.3
2023-08-20T15:46:11.681Z,19.3
2023-08-20T15:47:42.276Z,19.2
2023-08-20T15:49:12.934Z,19.3
2023-08-20T15:50:43.417Z,19.2
2023-08-20T15:52:30.787Z,19.3
2023-08-20T15:54:01.369Z,19.3
2023-08-20T15:55:31.991Z,19.2
2023-08-20T15:57:02.482Z,19.2
2023-08-20T15:58:33.027Z,19.3
2023-08-20T16:00:03.514Z,19.2
2023-08-20T16:01:34.072Z,19.3
2023-08-20T16:03:04.756Z,19.3
2023-08-20T16:04:35.670Z,19.3
2023-08-20T16:06:06.257Z,19.3
2023-08-20T16:07:36.944Z,19.3
2023-08-20T16:09:08.443Z,19.2
2023-08-20T16:10:38.920Z,19.3
2023-08-20T16:12:10.489Z,19.3
2023-08-20T16:13:41.240Z,19.2
2023-08-20T16:15:19.038Z,19.3
2023-08-20T16:16:50.089Z,19.3
2023-08-20T16:18:20.569Z,19.3
2023-08-20T16:19:51.235Z,19.2
2023-08-20T16:21:22.633Z,19.3
2023-08-20T16:22:53.262Z,19.3
2023-08-20T16:24:23.801Z,19.3
2023-08-20T16:25:54.418Z,19.3
2023-08-20T16:27:24.951Z,19.3
2023-08-20T16:28:55.483Z,19.3
2023-08-20T16:30:28.763Z,19.3
2023-08-20T16:31:59.246Z,19.3
2023-08-20T16:33:30.012Z,19.2
2023-08-20T16:35:00.881Z,19.3
2023-08-20T16:36:31.408Z,19.3
2023-08-20T16:38:01.905Z,19.3
2023-08-20T16:39:34.233Z,19.2
2023-08-20T16:41:06.084Z,19.3
2023-08-20T16:42:36.591Z,19.3
2023-08-20T16:44:07.285Z,19.2
2023-08-20T16:45:37.836Z,19.3
2023-08-20T16:47:08.726Z,19.3
2023-08-20T16:48:39.227Z,19.2
2023-08-20T16:50:09.837Z,19.2
2023-08-20T16:51:40.319Z,19.2
2023-08-20T16:53:10.891Z,19.2
2023-08-20T16:54:41.435Z,19.2
2023-08-20T16:56:12.069Z,19.2
2023-08-20T16:57:42.569Z,19.3
2023-08-20T16:59:13.100Z,19.3
2023-08-20T17:00:43.612Z,19.3
2023-08-20T17:02:14.134Z,19.3
2023-08-20T17:03:44.626Z,19.3
2023-08-20T17:05:15.302Z,19.3
2023-08-20T17:06:46.715Z,19.3
2023-08-20T17:08:17.204Z,19.3
2023-08-20T17:09:47.796Z,19.3
2023-08-20T17:11:19.505Z,19.2
2023-08-20T17:12:51.264Z,19.2
2023-08-20T17:14:22.853Z,19.2
2023-08-20T17:15:55.374Z,19.3
2023-08-20T17:17:27.035Z,19.3
2023-08-20T17:18:57.647Z,19.2
2023-08-20T17:20:28.225Z,19.3
2023-08-20T17:21:58.911Z,19.3
2023-08-20T17:23:29.455Z,19.2
2023-08-20T17:25:02.923Z,19.3
2023-08-20T17:26:33.445Z,19.3
2023-08-20T17:28:03.993Z,19.3
2023-08-20T17:29:34.529Z,19.3
2023-08-20T17:31:05.020Z,19.2
2023-08-20T17:32:35.933Z,19.3
2023-08-20T17:34:07.578Z,19.2
2023-08-20T17:35:38.128Z,19.2
2023-08-20T17:37:08.621Z,19.2
2023-08-20T17:38:39.198Z,19.3
2023-08-20T17:40:09.681Z,19.2
2023-08-20T17:41:40.274Z,19.3
2023-08-20T17:41:57.250Z,19.3
2023-08-20T17:43:27.747Z,19.3
2023-08-20T17:44:58.167Z,19.3
2023-08-20T17:46:28.720Z,19.2
2023-08-20T17:47:59.232Z,19.2
2023-08-20T17:49:29.833Z,19.2
2023-08-20T17:51:00.397Z,19.2
2023-08-20T17:52:30.993Z,19.3
2023-08-20T17:54:01.503Z,19.2
2023-08-20T17:55:32.041Z,19.3
2023-08-20T17:57:02.557Z,19.2
2023-08-20T17:58:33.090Z,19.3
2023-08-20T18:00:03.502Z,19.3
2023-08-20T18:01:34.021Z,19.2
2023-08-20T18:03:04.445Z,19.2
2023-08-20T18:04:34.949Z,19.3
2023-08-20T18:06:05.421Z,19.3
2023-08-20T18:07:35.902Z,19.3
2023-08-20T18:09:06.341Z,19.3
2023-08-20T18:10:36.875Z,19.3
2023-08-20T18:12:07.366Z,19.3
2023-08-20T18:13:37.784Z,19.3
2023-08-20T18:15:08.222Z,19.3
2023-08-20T18:16:38.759Z,19.2
2023-08-20T18:18:09.499Z,19.3
2023-08-20T18:19:40.108Z,19.3
2023-08-20T18:21:10.637Z,19.3
2023-08-20T18:22:41.127Z,19.2
2023-08-20T18:24:11.578Z,19.3
2023-08-20T18:25:42.069Z,19.2
2023-08-20T18:27:12.498Z,19.3
2023-08-20T18:28:43.028Z,19.2
2023-08-20T18:30:13.544Z,19.3
2023-08-20T18:31:44.055Z,19.3
2023-08-20T18:33:14.544Z,19.2
2023-08-20T18:34:45.044Z,19.2
2023-08-20T18:36:15.557Z,19.3
2023-08-20T18:37:46.055Z,19.3
2023-08-20T18:39:16.584Z,19.2
2023-08-20T18:40:47.085Z,19.2
2023-08-20T18:42:17.510Z,19.3
2023-08-20T18:43:47.934Z,19.2
2023-08-20T18:45:18.346Z,19.2
2023-08-20T18:46:48.783Z,19.3
2023-08-20T18:48:19.305Z,19.2
2023-08-20T18:49:49.723Z,19.2
2023-08-20T18:51:20.167Z,19.2
2023-08-20T18:52:50.882Z,19.3
2023-08-20T18:54:21.388Z,19.3
2023-08-20T18:55:51.816Z,19.3
2023-08-20T18:57:22.344Z,19.3
2023-08-20T18:58:52.852Z,19.2
2023-08-20T19:00:23.340Z,19.2
2023-08-20T19:01:53.830Z,19.2
2023-08-20T19:03:24.521Z,19.2
2023-08-20T19:04:55.354Z,19.3
2023-08-20T19:06:25.817Z,19.2
2023-08-20T19:07:56.308Z,19.2
2023-08-20T19:09:26.825Z,19.2
2023-08-20T19:10:57.382Z,19.2
2023-08-20T19:12:27.876Z,19.2
2023-08-20T19:13:59.935Z,19.3
2023-08-20T19:15:32.200Z,19.2
2023-08-20T19:17:02.725Z,19.2
2023-08-20T19:18:33.130Z,19.3
2023-08-20T19:20:03.556Z,19.2
2023-08-20T19:21:34.008Z,19.3
2023-08-20T19:23:04.502Z,19.2
2023-08-20T19:24:34.921Z,19.2
2023-08-20T19:26:05.494Z,19.2
2023-08-20T19:27:35.968Z,19.2
2023-08-20T19:29:06.504Z,19.2
2023-08-20T19:32:18.996Z,19.2
2023-08-20T19:33:50.552Z,19.2
2023-08-20T19:35:36.096Z,19.2
2023-08-20T19:37:13.659Z,19.3
2023-08-20T19:38:44.310Z,19.2
2023-08-20T19:40:18.071Z,19.2
2023-08-20T19:41:48.676Z,19.2
2023-08-20T19:43:19.247Z,19.3
2023-08-20T19:44:49.934Z,19.3
2023-08-20T19:46:20.577Z,19.2
2023-08-20T19:47:55.242Z,19.2
2023-08-20T19:49:25.908Z,19.2
2023-08-20T19:50:59.269Z,19.2
2023-08-20T19:52:29.814Z,19.2
2023-08-20T19:54:00.384Z,19.2
2023-08-20T19:55:30.884Z,19.2
2023-08-20T19:57:01.372Z,19.2
2023-08-20T19:58:32.072Z,19.2
2023-08-20T20:00:02.813Z,19.2
2023-08-20T20:01:33.311Z,19.2
2023-08-20T20:03:03.998Z,19.2
2023-08-20T20:04:34.828Z,19.2
2023-08-20T20:06:05.622Z,19.2
2023-08-20T20:07:36.169Z,19.3
2023-08-20T20:09:06.737Z,19.2
2023-08-20T20:10:37.247Z,19.2
2023-08-20T20:12:07.782Z,19.3
2023-08-20T20:13:38.311Z,19.2
2023-08-20T20:15:11.477Z,19.2
2023-08-20T20:16:42.026Z,19.2
2023-08-20T20:18:12.728Z,19.2
2023-08-20T20:19:43.257Z,19.2
2023-08-20T20:21:13.765Z,19.2
2023-08-20T20:22:44.210Z,19.2
2023-08-20T20:24:14.923Z,19.2
2023-08-20T20:25:46.144Z,19.2
2023-08-20T20:27:16.722Z,19.2
2023-08-20T20:28:47.178Z,19.2
2023-08-20T20:30:20.100Z,19.2
2023-08-20T20:31:50.666Z,19.2
2023-08-20T20:33:21.198Z,19.2
2023-08-20T20:34:51.730Z,19.2
2023-08-20T20:36:22.258Z,19.2
2023-08-20T20:37:52.832Z,19.2
2023-08-20T20:39:23.600Z,19.2
2023-08-20T20:40:54.072Z,19.2
2023-08-20T20:42:24.620Z,19.2
2023-08-20T20:43:55.196Z,19.2
2023-08-20T20:45:25.703Z,19.2
2023-08-20T20:46:56.131Z,19.2
2023-08-20T20:48:26.912Z,19.2
2023-08-20T20:50:00.471Z,19.2
2023-08-20T20:51:31.071Z,19.2
2023-08-20T20:53:01.651Z,19.2
2023-08-20T20:54:32.135Z,19.3
2023-08-20T20:56:02.673Z,19.2
2023-08-20T20:57:33.208Z,19.2
2023-08-20T20:59:03.711Z,19.2
2023-08-20T21:00:34.352Z,19.2
2023-08-20T21:03:26.417Z,19.2
2023-08-20T21:04:56.959Z,19.2
2023-08-20T21:06:27.455Z,19.2
2023-08-20T21:07:57.991Z,19.2
2023-08-20T21:09:28.564Z,19.2
2023-08-20T21:10:59.239Z,19.2
2023-08-20T21:12:29.754Z,19.2
2023-08-20T21:14:00.289Z,19.2
2023-08-20T21:15:30.813Z,19.2
2023-08-20T21:17:01.327Z,19.2
2023-08-20T21:18:31.773Z,19.2
2023-08-20T21:20:02.396Z,19.2
2023-08-20T21:21:32.889Z,19.2
2023-08-20T21:23:03.312Z,19.2
2023-08-20T21:24:33.864Z,19.2
2023-08-20T21:26:04.353Z,19.2
2023-08-20T21:27:34.772Z,19.2
2023-08-20T21:29:05.208Z,19.2
2023-08-20T21:30:35.737Z,19.2
2023-08-20T21:32:06.347Z,19.2
2023-08-20T21:33:37.002Z,19.2
2023-08-20T21:35:07.503Z,19.2
2023-08-20T21:36:38.020Z,19.2
2023-08-20T21:38:08.563Z,19.2
2023-08-20T21:39:39.097Z,19.2
2023-08-20T21:41:09.604Z,19.2
2023-08-20T21:42:40.420Z,19.2
2023-08-20T21:44:11.053Z,19.2
2023-08-20T21:45:41.523Z,19.2
2023-08-20T21:47:12.002Z,19.2
2023-08-20T21:48:42.518Z,19.2
2023-08-20T21:50:13.032Z,19.2
2023-08-20T21:51:43.561Z,19.2
2023-08-20T21:53:13.988Z,19.2
2023-08-20T21:54:44.512Z,19.2
2023-08-20T21:56:15.024Z,19.2
2023-08-20T21:57:45.548Z,19.2
2023-08-20T21:59:16.057Z,19.2
2023-08-20T22:00:46.478Z,19.2
2023-08-20T22:02:17.015Z,19.2
2023-08-20T22:03:47.754Z,19.2
2023-08-20T22:05:18.456Z,19.2
2023-08-20T22:06:48.902Z,19.2
2023-08-20T22:08:19.429Z,19.2
2023-08-20T22:09:50.051Z,19.2
2023-08-20T22:11:20.567Z,19.2
2023-08-20T22:12:51.093Z,19.2
2023-08-20T22:14:21.597Z,19.2
2023-08-20T22:15:52.161Z,19.2
2023-08-20T22:17:22.856Z,19.2
2023-08-20T22:18:53.377Z,19.2
2023-08-20T22:20:23.885Z,19.2
2023-08-20T22:21:54.431Z,19.2
2023-08-20T22:23:24.941Z,19.2
2023-08-20T22:24:55.492Z,19.2
2023-08-20T22:26:25.998Z,19.2
2023-08-20T22:27:56.510Z,19.2
2023-08-20T22:29:27.025Z,19.2
2023-08-20T22:30:57.566Z,19.2
2023-08-20T22:32:28.094Z,19.2
2023-08-20T22:33:58.597Z,19.2
2023-08-20T22:35:29.145Z,19.2
2023-08-20T22:37:02.922Z,19.2
2023-08-20T22:38:33.450Z,19.2
2023-08-20T22:40:04.004Z,19.2
2023-08-20T22:41:34.495Z,19.2
2023-08-20T22:43:05.003Z,19.2
2023-08-20T22:44:35.563Z,19.2
2023-08-20T22:46:06.109Z,19.2
2023-08-20T22:47:36.703Z,19.2
2023-08-20T22:49:07.348Z,19.2
2023-08-20T22:50:37.844Z,19.2
2023-08-20T22:52:08.347Z,19.2
2023-08-20T22:53:49.496Z,19.2
2023-08-20T22:55:20.065Z,19.2
2023-08-20T22:56:50.679Z,19.2
2023-08-20T22:58:21.254Z,19.2
2023-08-20T22:59:51.817Z,19.2
2023-08-20T23:01:22.354Z,19.2
2023-08-20T23:02:52.935Z,19.2
2023-08-20T23:04:23.632Z,19.2
2023-08-20T23:05:54.320Z,19.2
2023-08-20T23:07:24.815Z,19.2
2023-08-20T23:08:55.397Z,19.2
2023-08-20T23:10:25.906Z,19.2
2023-08-20T23:11:56.577Z,19.2
2023-08-20T23:13:27.190Z,19.2
2023-08-20T23:14:57.590Z,19.1
2023-08-20T23:16:28.257Z,19.2
2023-08-20T23:17:59.211Z,19.2
2023-08-20T23:19:29.809Z,19.2
2023-08-20T23:21:00.360Z,19.2
2023-08-20T23:22:30.864Z,19.2
2023-08-20T23:24:01.499Z,19.2
2023-08-20T23:25:32.037Z,19.2
2023-08-20T23:27:02.726Z,19.2
2023-08-20T23:28:33.285Z,19.2
2023-08-20T23:30:03.776Z,19.2
2023-08-20T23:31:34.361Z,19.2
2023-08-20T23:33:04.944Z,19.2
2023-08-20T23:34:35.555Z,19.2
2023-08-20T23:36:06.086Z,19.2
2023-08-20T23:37:36.626Z,19.2
2023-08-20T23:39:07.089Z,19.2
2023-08-20T23:40:37.753Z,19.1
2023-08-20T23:42:08.393Z,19.2
2023-08-20T23:43:38.844Z,19.2
2023-08-20T23:45:09.425Z,19.2
2023-08-20T23:46:47.611Z,19.2
2023-08-20T23:48:19.116Z,19.1
2023-08-20T23:49:49.773Z,19.2
2023-08-20T23:51:20.299Z,19.2
2023-08-20T23:52:50.797Z,19.2
2023-08-20T23:54:21.344Z,19.2
2023-08-20T23:55:51.927Z,19.2
2023-08-20T23:57:22.398Z,19.1
2023-08-20T23:58:52.986Z,19.2
